createdAt,value
2023-05-04T00:00:08.193Z,9.50
2023-05-04T00:02:36.782Z,8.80
2023-05-04T00:05:08.544Z,10.67
2023-05-04T00:07:36.885Z,9.80
2023-05-04T00:10:06.853Z,9.77
2023-05-04T00:12:35.521Z,10.93
2023-05-04T00:15:04.230Z,10.53
2023-05-04T00:17:33.608Z,11.37
2023-05-04T00:20:02.269Z,10.27
2023-05-04T00:22:33.439Z,9.83
2023-05-04T00:25:01.819Z,10.90
2023-05-04T00:27:30.325Z,11.30
2023-05-04T00:29:58.951Z,9.93
2023-05-04T00:32:29.106Z,9.03
2023-05-04T00:34:58.077Z,10.97
2023-05-04T00:37:29.968Z,10.47
2023-05-04T00:39:59.876Z,11.67
2023-05-04T00:42:28.763Z,9.87
2023-05-04T00:44:57.250Z,11.40
2023-05-04T00:47:27.587Z,12.13
2023-05-04T00:49:56.387Z,10.53
2023-05-04T00:52:28.758Z,9.33
2023-05-04T00:54:57.543Z,8.90
2023-05-04T00:57:28.082Z,11.57
2023-05-04T00:59:57.675Z,11.33
2023-05-04T01:02:27.072Z,11.17
2023-05-04T01:04:56.701Z,11.10
2023-05-04T01:07:34.469Z,11.80
2023-05-04T01:10:11.349Z,9.77
2023-05-04T01:12:47.461Z,12.67
2023-05-04T01:15:16.100Z,12.13
2023-05-04T01:17:44.540Z,12.07
2023-05-04T01:20:14.046Z,12.00
2023-05-04T01:22:44.378Z,9.30
2023-05-04T01:25:13.414Z,13.70
2023-05-04T01:27:48.297Z,13.63
2023-05-04T01:30:23.479Z,12.10
2023-05-04T01:32:54.370Z,12.37
2023-05-04T01:35:23.802Z,12.00
2023-05-04T01:37:53.894Z,14.37
2023-05-04T01:40:23.311Z,12.57
2023-05-04T01:42:52.324Z,11.67
2023-05-04T01:45:21.545Z,14.43
2023-05-04T01:47:50.864Z,14.40
2023-05-04T01:50:19.762Z,14.03
2023-05-04T01:52:48.251Z,12.87
2023-05-04T01:55:18.344Z,12.00
2023-05-04T01:57:47.115Z,13.30
2023-05-04T02:00:17.618Z,15.27
2023-05-04T02:02:46.182Z,15.73
2023-05-04T02:05:14.666Z,11.57
2023-05-04T02:07:43.288Z,15.53
2023-05-04T02:10:12.428Z,15.47
2023-05-04T02:12:43.130Z,13.30
2023-05-04T02:15:13.007Z,12.10
2023-05-04T02:17:41.615Z,14.63
2023-05-04T02:20:13.061Z,14.27
2023-05-04T02:22:41.518Z,13.43
2023-05-04T02:25:11.973Z,11.73
2023-05-04T02:27:41.877Z,13.33
2023-05-04T02:30:13.762Z,13.70
2023-05-04T02:32:42.411Z,13.77
2023-05-04T02:35:11.128Z,15.53
2023-05-04T02:37:39.798Z,14.43
2023-05-04T02:40:09.933Z,14.07
2023-05-04T02:42:38.394Z,14.37
2023-05-04T02:45:10.202Z,17.97
2023-05-04T02:47:39.410Z,18.23
2023-05-04T02:50:16.641Z,15.37
2023-05-04T02:52:45.633Z,15.33
2023-05-04T02:55:14.109Z,17.43
2023-05-04T02:57:42.912Z,16.90
2023-05-04T03:00:14.170Z,14.67
2023-05-04T03:02:42.657Z,17.57
2023-05-04T03:05:11.638Z,16.47
2023-05-04T03:07:40.253Z,14.10
2023-05-04T03:10:11.534Z,15.93
2023-05-04T03:12:39.951Z,16.43
2023-05-04T03:15:09.971Z,14.80
2023-05-04T03:17:39.890Z,15.50
2023-05-04T03:20:09.864Z,16.57
2023-05-04T03:22:38.990Z,17.10
2023-05-04T03:25:09.410Z,15.23
2023-05-04T03:27:37.972Z,15.77
2023-05-04T03:30:08.386Z,16.93
2023-05-04T03:32:37.003Z,13.93
2023-05-04T03:35:07.641Z,16.77
2023-05-04T03:37:36.230Z,17.93
2023-05-04T03:40:05.490Z,16.50
2023-05-04T03:42:34.086Z,15.30
2023-05-04T03:45:04.156Z,16.93
2023-05-04T03:47:32.958Z,17.40
2023-05-04T03:50:01.440Z,17.43
2023-05-04T03:52:31.474Z,15.40
2023-05-04T03:55:00.020Z,16.80
2023-05-04T03:57:31.482Z,16.40
2023-05-04T04:00:00.591Z,17.27
2023-05-04T04:02:29.258Z,14.87
2023-05-04T04:04:58.356Z,15.57
2023-05-04T04:07:27.557Z,14.63
2023-05-04T04:09:57.564Z,15.93
2023-05-04T04:12:26.559Z,14.50
2023-05-04T04:14:56.340Z,16.37
2023-05-04T04:17:26.284Z,14.87
2023-05-04T04:19:54.887Z,14.23
2023-05-04T04:22:23.606Z,14.20
2023-05-04T04:24:56.598Z,12.27
2023-05-04T04:27:25.767Z,16.97
2023-05-04T04:29:55.044Z,14.63
2023-05-04T04:32:24.786Z,14.83
2023-05-04T04:34:53.995Z,16.03
2023-05-04T04:37:22.993Z,14.10
2023-05-04T04:39:53.996Z,16.93
2023-05-04T04:42:24.296Z,15.87
2023-05-04T04:44:55.753Z,15.33
2023-05-04T04:47:27.470Z,16.53
2023-05-04T04:49:56.900Z,16.03
2023-05-04T04:52:26.169Z,16.20
2023-05-04T04:54:55.009Z,15.63
2023-05-04T04:57:24.999Z,14.67
2023-05-04T04:59:58.226Z,12.40
2023-05-04T05:02:28.417Z,13.53
2023-05-04T05:04:57.498Z,16.37
2023-05-04T05:07:26.179Z,14.60
2023-05-04T05:09:57.556Z,15.33
2023-05-04T05:12:28.290Z,16.70
2023-05-04T05:14:57.435Z,14.50
2023-05-04T05:17:28.245Z,15.13
2023-05-04T05:19:57.896Z,15.70
2023-05-04T05:22:29.342Z,11.53
2023-05-04T05:24:59.619Z,16.70
2023-05-04T05:27:32.750Z,14.20
2023-05-04T05:30:02.557Z,14.27
2023-05-04T05:32:32.480Z,13.17
2023-05-04T05:35:01.098Z,13.90
2023-05-04T05:37:32.750Z,14.30
2023-05-04T05:40:01.197Z,16.20
2023-05-04T05:42:33.712Z,12.43
2023-05-04T05:45:04.707Z,14.53
2023-05-04T05:47:37.665Z,15.13
2023-05-04T05:50:08.789Z,14.70
2023-05-04T05:52:37.301Z,13.33
2023-05-04T05:55:12.315Z,14.57
2023-05-04T05:57:42.303Z,13.93
2023-05-04T06:00:12.778Z,13.27
2023-05-04T06:02:41.492Z,17.13
2023-05-04T06:05:11.386Z,11.67
2023-05-04T06:07:41.256Z,12.20
2023-05-04T06:10:10.839Z,14.37
2023-05-04T06:12:39.421Z,12.07
2023-05-04T06:15:11.990Z,12.13
2023-05-04T06:17:43.608Z,13.73
2023-05-04T06:20:13.072Z,11.23
2023-05-04T06:22:41.574Z,17.50
2023-05-04T06:25:11.554Z,14.43
2023-05-04T06:27:39.992Z,13.20
2023-05-04T06:30:11.429Z,15.00
2023-05-04T06:32:39.945Z,13.00
2023-05-04T06:35:10.607Z,12.20
2023-05-04T06:37:39.015Z,11.40
2023-05-04T06:40:10.332Z,15.13
2023-05-04T06:42:40.722Z,10.40
2023-05-04T06:45:11.966Z,14.37
2023-05-04T06:47:40.383Z,13.27
2023-05-04T06:50:10.578Z,13.67
2023-05-04T06:52:41.787Z,15.03
2023-05-04T06:55:10.862Z,10.70
2023-05-04T06:57:39.180Z,13.20
2023-05-04T07:00:11.369Z,12.00
2023-05-04T07:02:39.790Z,12.97
2023-05-04T07:05:09.157Z,11.53
2023-05-04T07:07:37.549Z,11.93
2023-05-04T07:10:07.264Z,13.00
2023-05-04T07:12:35.795Z,12.57
2023-05-04T07:15:04.621Z,11.63
2023-05-04T07:17:34.662Z,10.17
2023-05-04T07:20:04.638Z,16.40
2023-05-04T07:22:33.476Z,15.67
2023-05-04T07:25:02.481Z,9.70
2023-05-04T07:27:31.448Z,12.80
2023-05-04T07:29:59.827Z,11.93
2023-05-04T07:32:28.347Z,10.23
2023-05-04T07:34:58.085Z,9.77
2023-05-04T07:37:27.273Z,12.10
2023-05-04T07:39:56.336Z,15.23
2023-05-04T07:42:24.940Z,14.07
2023-05-04T07:44:54.470Z,12.73
2023-05-04T07:47:24.530Z,12.43
2023-05-04T07:49:53.822Z,14.40
2023-05-04T07:52:23.642Z,13.60
2023-05-04T07:54:54.092Z,11.20
2023-05-04T07:57:23.135Z,14.33
2023-05-04T07:59:55.992Z,12.90
2023-05-04T08:02:26.483Z,11.83
2023-05-04T08:04:55.167Z,12.03
2023-05-04T08:07:28.166Z,14.20
2023-05-04T08:09:57.326Z,16.40
2023-05-04T08:12:27.099Z,14.10
2023-05-04T08:14:55.836Z,12.40
2023-05-04T08:17:25.182Z,12.60
2023-05-04T08:19:54.261Z,9.53
2023-05-04T08:22:25.540Z,11.10
2023-05-04T08:24:54.058Z,9.30
2023-05-04T08:27:23.342Z,12.97
2023-05-04T08:29:52.750Z,10.57
2023-05-04T08:32:21.275Z,11.27
2023-05-04T08:34:50.931Z,11.57
2023-05-04T08:37:20.203Z,11.17
2023-05-04T08:39:50.001Z,10.37
2023-05-04T08:42:29.406Z,12.30
2023-05-04T08:45:03.860Z,8.30
2023-05-04T08:47:32.593Z,8.85
2023-05-04T08:50:01.196Z,9.90
2023-05-04T08:52:30.537Z,12.13
2023-05-04T08:55:03.848Z,10.87
2023-05-04T08:57:36.214Z,17.50
2023-05-04T09:00:06.005Z,10.17
2023-05-04T09:02:36.032Z,10.10
2023-05-04T09:05:08.105Z,12.87
2023-05-04T09:07:36.637Z,13.43
2023-05-04T09:10:07.993Z,9.10
2023-05-04T09:12:37.983Z,9.57
2023-05-04T09:15:17.757Z,8.10
2023-05-04T09:17:58.328Z,10.03
2023-05-04T09:20:27.535Z,8.93
2023-05-04T09:23:07.250Z,10.93
2023-05-04T09:25:48.477Z,11.17
2023-05-04T09:28:18.620Z,11.23
2023-05-04T09:30:48.956Z,9.50
2023-05-04T09:33:17.886Z,11.07
2023-05-04T09:35:46.386Z,12.50
2023-05-04T09:38:27.607Z,9.07
2023-05-04T09:40:58.080Z,10.03
2023-05-04T09:43:27.433Z,9.83
2023-05-04T09:45:56.388Z,11.90
2023-05-04T09:48:29.362Z,9.03
2023-05-04T09:51:00.628Z,8.33
2023-05-04T09:53:31.109Z,9.27
2023-05-04T09:56:12.274Z,10.10
2023-05-04T09:58:41.352Z,9.20
2023-05-04T10:01:11.174Z,9.50
2023-05-04T10:03:39.924Z,10.07
2023-05-04T10:06:09.433Z,9.43
2023-05-04T10:08:38.801Z,7.63
2023-05-04T10:11:09.930Z,10.43
2023-05-04T10:13:39.211Z,9.30
2023-05-04T10:16:29.273Z,10.33
2023-05-04T10:19:26.647Z,12.13
2023-05-04T10:22:13.645Z,8.77
2023-05-04T10:25:28.208Z,7.50
2023-05-04T10:28:16.667Z,11.53
2023-05-04T10:30:45.608Z,7.90
2023-05-04T10:33:14.393Z,9.30
2023-05-04T10:35:53.236Z,9.60
2023-05-04T10:38:33.212Z,9.47
2023-05-04T10:41:01.675Z,7.27
2023-05-04T10:43:32.660Z,9.67
2023-05-04T10:46:02.590Z,7.87
2023-05-04T10:48:37.429Z,8.53
2023-05-04T10:51:06.678Z,9.30
2023-05-04T10:53:35.586Z,9.87
2023-05-04T10:56:04.360Z,7.17
2023-05-04T10:58:34.429Z,9.50
2023-05-04T11:01:13.565Z,10.17
2023-05-04T11:03:43.920Z,7.80
2023-05-04T11:06:23.369Z,6.63
2023-05-04T11:09:02.188Z,6.33
2023-05-04T11:11:31.296Z,9.57
2023-05-04T11:14:01.708Z,8.43
2023-05-04T11:16:30.247Z,7.23
2023-05-04T11:19:09.652Z,8.77
2023-05-04T11:21:39.399Z,8.48
2023-05-04T11:24:08.965Z,8.73
2023-05-04T11:26:49.432Z,6.38
2023-05-04T11:29:20.646Z,8.63
2023-05-04T11:31:58.382Z,8.85
2023-05-04T11:34:28.071Z,6.35
2023-05-04T11:36:57.516Z,6.53
2023-05-04T11:39:28.084Z,6.57
2023-05-04T11:42:01.141Z,6.95
2023-05-04T11:44:34.377Z,6.85
2023-05-04T11:47:03.357Z,9.27
2023-05-04T11:49:32.519Z,8.68
2023-05-04T11:52:08.120Z,8.68
2023-05-04T11:54:37.077Z,8.55
2023-05-04T11:57:05.776Z,8.40
2023-05-04T11:59:35.781Z,8.90
2023-05-04T12:02:04.592Z,6.68
2023-05-04T12:04:33.543Z,8.43
2023-05-04T12:07:08.247Z,8.05
2023-05-04T12:09:46.564Z,11.15
2023-05-04T12:12:17.364Z,10.20
2023-05-04T12:14:52.640Z,8.38
2023-05-04T12:17:21.631Z,8.77
2023-05-04T12:19:52.687Z,11.02
2023-05-04T12:22:29.654Z,7.88
2023-05-04T12:25:00.199Z,7.00
2023-05-04T12:27:29.716Z,7.25
2023-05-04T12:29:59.635Z,10.40
2023-05-04T12:32:29.262Z,7.45
2023-05-04T12:35:00.851Z,8.23
2023-05-04T12:37:29.213Z,5.75
2023-05-04T12:40:02.442Z,7.93
2023-05-04T12:42:32.070Z,7.47
2023-05-04T12:45:01.854Z,7.88
2023-05-04T12:47:30.371Z,5.90
2023-05-04T12:49:59.939Z,5.78
2023-05-04T12:52:28.577Z,5.53
2023-05-04T12:54:57.170Z,6.60
2023-05-04T12:57:26.437Z,5.88
2023-05-04T12:59:55.227Z,9.93
2023-05-04T13:02:30.665Z,8.85
2023-05-04T13:04:59.012Z,6.00
2023-05-04T13:07:27.822Z,5.35
2023-05-04T13:09:56.408Z,7.65
2023-05-04T13:12:26.252Z,6.55
2023-05-04T13:14:56.891Z,5.70
2023-05-04T13:17:27.643Z,6.53
2023-05-04T13:19:56.577Z,7.72
2023-05-04T13:22:25.341Z,5.68
2023-05-04T13:24:54.050Z,6.07
2023-05-04T13:27:22.965Z,6.75
2023-05-04T13:29:51.578Z,8.07
2023-05-04T13:32:20.449Z,6.70
2023-05-04T13:34:50.505Z,6.53
2023-05-04T13:37:19.243Z,6.60
2023-05-04T13:39:47.852Z,6.35
2023-05-04T13:42:16.460Z,9.55
2023-05-04T13:44:45.696Z,7.50
2023-05-04T13:47:15.135Z,6.57
2023-05-04T13:49:43.798Z,6.38
2023-05-04T13:52:14.150Z,7.45
2023-05-04T13:54:42.777Z,8.88
2023-05-04T13:57:16.495Z,6.30
2023-05-04T13:59:54.881Z,4.55
2023-05-04T14:02:33.883Z,8.35
2023-05-04T14:05:02.760Z,5.47
2023-05-04T14:07:32.670Z,8.40
2023-05-04T14:10:01.348Z,6.22
2023-05-04T14:12:29.940Z,5.65
2023-05-04T14:14:59.165Z,5.78
2023-05-04T14:17:27.954Z,4.53
2023-05-04T14:19:59.035Z,4.95
2023-05-04T14:22:27.750Z,9.00
2023-05-04T14:24:57.777Z,5.82
2023-05-04T14:27:27.502Z,7.35
2023-05-04T14:29:58.116Z,5.95
2023-05-04T14:32:26.684Z,5.78
2023-05-04T14:35:01.977Z,6.15
2023-05-04T14:37:30.705Z,8.10
2023-05-04T14:40:01.233Z,4.43
2023-05-04T14:42:29.712Z,5.47
2023-05-04T14:44:58.452Z,6.30
2023-05-04T14:47:27.645Z,5.85
2023-05-04T14:49:57.432Z,8.32
2023-05-04T14:52:27.687Z,5.75
2023-05-04T14:54:56.465Z,5.82
2023-05-04T14:57:26.625Z,6.60
2023-05-04T14:59:56.222Z,7.88
2023-05-04T15:02:24.895Z,8.13
2023-05-04T15:04:55.412Z,6.38
2023-05-04T15:07:23.764Z,7.28
2023-05-04T15:09:52.610Z,7.97
2023-05-04T15:12:21.511Z,5.32
2023-05-04T15:15:03.757Z,7.90
2023-05-04T15:17:32.565Z,5.50
2023-05-04T15:20:02.418Z,5.38
2023-05-04T15:22:34.037Z,8.52
2023-05-04T15:25:03.587Z,6.05
2023-05-04T15:27:32.410Z,6.53
2023-05-04T15:30:02.365Z,6.45
2023-05-04T15:32:30.941Z,5.60
2023-05-04T15:35:05.152Z,6.78
2023-05-04T15:37:35.066Z,5.97
2023-05-04T15:40:04.732Z,5.88
2023-05-04T15:42:33.671Z,8.63
2023-05-04T15:45:04.084Z,7.80
2023-05-04T15:47:36.465Z,7.75
2023-05-04T15:50:06.761Z,4.95
2023-05-04T15:52:35.822Z,7.00
2023-05-04T15:55:16.411Z,5.80
2023-05-04T15:57:54.482Z,6.78
2023-05-04T16:00:26.415Z,5.95
2023-05-04T16:02:55.960Z,7.45
2023-05-04T16:05:26.251Z,4.78
2023-05-04T16:07:55.432Z,5.45
2023-05-04T16:10:24.137Z,6.10
2023-05-04T16:12:53.756Z,4.78
2023-05-04T16:15:22.791Z,5.95
2023-05-04T16:17:52.772Z,4.88
2023-05-04T16:20:21.810Z,8.18
2023-05-04T16:22:50.260Z,4.93
2023-05-04T16:25:20.573Z,6.20
2023-05-04T16:27:51.051Z,7.82
2023-05-04T16:30:21.951Z,5.80
2023-05-04T16:32:51.869Z,6.68
2023-05-04T16:35:24.089Z,7.00
2023-05-04T16:37:53.198Z,6.03
2023-05-04T16:40:26.298Z,4.88
2023-05-04T16:42:55.195Z,6.22
2023-05-04T16:45:25.600Z,6.15
2023-05-04T16:47:58.142Z,5.82
2023-05-04T16:50:27.488Z,6.00
2023-05-04T16:52:57.189Z,7.53
2023-05-04T16:55:28.263Z,7.50
2023-05-04T16:57:58.696Z,4.57
2023-05-04T17:00:27.827Z,6.43
2023-05-04T17:03:14.413Z,7.25
2023-05-04T17:05:43.240Z,6.20
2023-05-04T17:08:12.616Z,8.05
2023-05-04T17:10:41.196Z,5.05
2023-05-04T17:13:09.946Z,6.22
2023-05-04T17:15:38.392Z,6.30
2023-05-04T17:18:08.326Z,6.32
2023-05-04T17:20:36.793Z,4.30
2023-05-04T17:23:05.326Z,5.50
2023-05-04T17:25:34.121Z,9.25
2023-05-04T17:28:03.487Z,4.80
2023-05-04T17:30:33.731Z,6.10
2023-05-04T17:33:02.243Z,8.05
2023-05-04T17:35:32.311Z,6.07
2023-05-04T17:38:01.263Z,6.25
2023-05-04T17:40:30.557Z,6.65
2023-05-04T17:43:00.305Z,7.65
2023-05-04T17:45:29.258Z,7.18
2023-05-04T17:47:58.393Z,5.60
2023-05-04T17:50:38.867Z,7.15
2023-05-04T17:53:07.522Z,8.87
2023-05-04T17:55:36.338Z,6.20
2023-05-04T17:58:04.877Z,5.30
2023-05-04T18:00:33.626Z,6.37
2023-05-04T18:03:01.988Z,6.73
2023-05-04T18:05:36.880Z,7.47
2023-05-04T18:08:05.958Z,4.23
2023-05-04T18:10:34.412Z,7.97
2023-05-04T18:13:02.812Z,7.20
2023-05-04T18:15:31.299Z,6.30
2023-05-04T18:18:00.506Z,7.80
2023-05-04T18:20:29.323Z,10.13
2023-05-04T18:22:59.092Z,6.30
2023-05-04T18:25:28.476Z,5.10
2023-05-04T18:27:58.756Z,9.63
2023-05-04T18:30:27.987Z,7.53
2023-05-04T18:32:56.887Z,6.87
2023-05-04T18:35:25.465Z,7.07
2023-05-04T18:37:53.849Z,5.20
2023-05-04T18:40:24.478Z,5.63
2023-05-04T18:42:52.940Z,7.37
2023-05-04T18:45:21.727Z,5.03
2023-05-04T18:47:50.447Z,7.63
2023-05-04T18:50:19.664Z,9.93
2023-05-04T18:52:48.780Z,6.97
2023-05-04T18:55:17.355Z,6.63
2023-05-04T18:57:47.208Z,7.00
2023-05-04T19:00:16.372Z,7.60
2023-05-04T19:02:45.038Z,8.10
2023-05-04T19:05:14.733Z,7.83
2023-05-04T19:07:43.350Z,5.50
2023-05-04T19:10:12.318Z,5.23
2023-05-04T19:12:40.720Z,6.93
2023-05-04T19:15:11.643Z,6.73
2023-05-04T19:17:40.122Z,7.37
2023-05-04T19:20:10.456Z,6.30
2023-05-04T19:22:39.072Z,7.57
2023-05-04T19:25:12.245Z,5.97
2023-05-04T19:27:44.032Z,7.87
2023-05-04T19:30:14.328Z,7.97
2023-05-04T19:32:43.203Z,6.67
2023-05-04T19:35:11.656Z,5.77
2023-05-04T19:37:39.975Z,7.00
2023-05-04T19:40:10.354Z,7.43
2023-05-04T19:42:39.977Z,7.87
2023-05-04T19:45:10.301Z,6.63
2023-05-04T19:47:40.295Z,8.40
2023-05-04T19:50:14.077Z,4.73
2023-05-04T19:52:43.004Z,8.07
2023-05-04T19:55:11.890Z,6.23
2023-05-04T19:57:40.821Z,7.63
2023-05-04T20:00:11.022Z,5.73
2023-05-04T20:02:41.039Z,6.83
2023-05-04T20:05:09.876Z,6.70
2023-05-04T20:07:38.294Z,7.33
2023-05-04T20:10:08.376Z,7.87
2023-05-04T20:12:37.283Z,6.50
2023-05-04T20:15:06.921Z,8.70
2023-05-04T20:17:35.307Z,7.23
2023-05-04T20:20:06.849Z,7.67
2023-05-04T20:22:35.528Z,7.27
2023-05-04T20:25:04.133Z,6.70
2023-05-04T20:27:32.613Z,7.03
2023-05-04T20:30:01.237Z,5.87
2023-05-04T20:32:31.234Z,7.63
2023-05-04T20:34:59.616Z,8.37
2023-05-04T20:37:29.889Z,6.63
2023-05-04T20:39:58.795Z,8.43
2023-05-04T20:42:28.516Z,7.57
2023-05-04T20:44:56.983Z,8.27
2023-05-04T20:47:26.822Z,5.80
2023-05-04T20:49:55.569Z,5.87
2023-05-04T20:52:25.163Z,5.90
2023-05-04T20:54:56.566Z,6.27
2023-05-04T20:57:25.481Z,8.90
2023-05-04T20:59:54.550Z,7.90
2023-05-04T21:02:23.942Z,7.83
2023-05-04T21:04:52.914Z,8.30
2023-05-04T21:07:21.966Z,8.77
2023-05-04T21:09:50.403Z,6.93
2023-05-04T21:12:20.769Z,7.27
2023-05-04T21:14:49.207Z,7.20
2023-05-04T21:17:17.746Z,7.77
2023-05-04T21:19:46.241Z,6.03
2023-05-04T21:22:17.726Z,6.83
2023-05-04T21:24:47.354Z,6.73
2023-05-04T21:27:15.778Z,7.87
2023-05-04T21:29:45.571Z,6.63
2023-05-04T21:32:14.498Z,6.93
2023-05-04T21:34:43.009Z,7.13
2023-05-04T21:37:11.480Z,7.37
2023-05-04T21:39:40.170Z,6.33
2023-05-04T21:42:09.243Z,7.53
2023-05-04T21:44:37.691Z,7.67
2023-05-04T21:47:07.784Z,6.67
2023-05-04T21:49:36.183Z,6.83
2023-05-04T21:52:04.822Z,7.13
2023-05-04T21:54:33.251Z,6.87
2023-05-04T21:57:01.566Z,6.60
2023-05-04T21:59:30.257Z,5.93
2023-05-04T22:01:58.613Z,9.20
2023-05-04T22:04:28.660Z,6.63
2023-05-04T22:06:58.133Z,8.00
2023-05-04T22:09:26.622Z,10.13
2023-05-04T22:11:55.990Z,7.73
2023-05-04T22:14:24.548Z,7.90
2023-05-04T22:16:53.491Z,6.93
2023-05-04T22:19:21.909Z,7.87
2023-05-04T22:21:51.676Z,7.90
2023-05-04T22:24:20.216Z,6.13
2023-05-04T22:26:48.719Z,6.80
2023-05-04T22:29:17.164Z,5.67
2023-05-04T22:31:45.510Z,6.23
2023-05-04T22:34:14.038Z,7.00
2023-05-04T22:36:42.417Z,7.87
2023-05-04T22:39:12.407Z,6.07
2023-05-04T22:41:41.137Z,7.03
2023-05-04T22:44:09.664Z,8.07
2023-05-04T22:46:38.168Z,7.17
2023-05-04T22:49:06.759Z,9.20
2023-05-04T22:51:35.251Z,6.30
2023-05-04T22:54:03.930Z,7.70
2023-05-04T22:56:34.145Z,9.70
2023-05-04T22:59:02.774Z,9.50
2023-05-04T23:01:32.410Z,9.53
2023-05-04T23:04:00.921Z,8.33
2023-05-04T23:06:29.536Z,9.13
2023-05-04T23:08:58.606Z,7.57
2023-05-04T23:11:27.229Z,7.30
2023-05-04T23:13:57.069Z,7.73
2023-05-04T23:16:25.897Z,11.10
2023-05-04T23:18:55.055Z,11.00
2023-05-04T23:21:24.750Z,6.90
2023-05-04T23:23:53.525Z,10.13
2023-05-04T23:26:22.470Z,8.90
2023-05-04T23:28:51.108Z,10.10
2023-05-04T23:31:21.645Z,7.27
2023-05-04T23:33:50.135Z,8.97
2023-05-04T23:36:20.514Z,10.70
2023-05-04T23:38:49.822Z,9.63
2023-05-04T23:41:18.563Z,8.77
2023-05-04T23:43:47.122Z,7.50
2023-05-04T23:46:20.176Z,9.70
2023-05-04T23:48:51.628Z,7.53
2023-05-04T23:51:21.640Z,7.77
2023-05-04T23:53:50.338Z,8.33
2023-05-04T23:56:19.044Z,7.17
2023-05-04T23:58:47.727Z,7.87
